createdAt,value
2018-12-21T00:00:07.327Z,97.08
2018-12-21T00:00:47.570Z,97.74
2018-12-21T00:02:06.524Z,98.08
2018-12-21T00:03:14.214Z,97.46
2018-12-21T00:04:35.832Z,97.27
2018-12-21T00:06:13.117Z,96.22
2018-12-21T00:06:47.319Z,96.98
2018-12-21T00:08:01.766Z,97.03
2018-12-21T00:09:33.109Z,96.98
2018-12-21T00:10:09.218Z,96.60
2018-12-21T00:11:38.348Z,96.41
2018-12-21T00:12:27.913Z,96.31
2018-12-21T00:14:05.817Z,96.65
2018-12-21T00:14:52.815Z,96.27
2018-12-21T00:15:47.302Z,96.55
2018-12-21T00:18:03.694Z,96.27
2018-12-21T00:19:16.301Z,95.89
2018-12-21T00:20:14.466Z,95.89
2018-12-21T00:20:56.555Z,95.65
2018-12-21T00:22:17.867Z,95.70
2018-12-21T00:23:26.299Z,95.89
2018-12-21T00:24:34.368Z,96.17
2018-12-21T00:25:46.366Z,96.08
2018-12-21T00:26:22.711Z,95.79
2018-12-21T00:27:47.093Z,95.89
2018-12-21T00:28:52.630Z,95.89
2018-12-21T00:29:48.444Z,95.89
2018-12-21T00:30:47.427Z,95.89
2018-12-21T00:32:02.387Z,95.60
2018-12-21T00:33:35.169Z,95.32
2018-12-21T00:34:57.197Z,95.32
2018-12-21T00:35:32.413Z,94.89
2018-12-21T00:37:16.767Z,95.60
2018-12-21T00:37:46.360Z,95.41
2018-12-21T00:38:51.395Z,95.12
2018-12-21T00:40:08.187Z,95.79
2018-12-21T00:41:16.698Z,94.93
2018-12-21T00:42:17.424Z,94.93
2018-12-21T00:44:27.579Z,95.32
2018-12-21T00:45:18.779Z,95.03
2018-12-21T00:46:10.297Z,94.93
2018-12-21T00:47:16.853Z,94.37
2018-12-21T00:48:29.253Z,93.89
2018-12-21T00:49:48.104Z,94.22
2018-12-21T00:50:25.585Z,93.94
2018-12-21T00:51:45.563Z,94.56
2018-12-21T00:52:37.583Z,94.93
2018-12-21T00:53:51.520Z,94.32
2018-12-21T00:55:17.542Z,94.03
2018-12-21T00:56:05.471Z,94.42
2018-12-21T00:57:15.921Z,94.03
2018-12-21T00:58:15.359Z,93.89
2018-12-21T00:59:41.952Z,94.42
2018-12-21T01:00:28.956Z,94.08
2018-12-21T01:01:47.599Z,93.27
2018-12-21T01:03:00.005Z,93.46
2018-12-21T01:03:46.899Z,93.74
2018-12-21T01:04:34.005Z,93.27
2018-12-21T01:06:10.775Z,93.74
2018-12-21T01:07:12.731Z,93.55
2018-12-21T01:08:38.015Z,93.37
2018-12-21T01:09:43.773Z,93.70
2018-12-21T01:10:15.006Z,93.70
2018-12-21T01:11:12.361Z,93.51
2018-12-21T01:12:46.464Z,93.60
2018-12-21T01:14:01.529Z,93.89
2018-12-21T01:15:01.508Z,94.56
2018-12-21T01:16:19.467Z,93.13
2018-12-21T01:17:17.528Z,93.32
2018-12-21T01:18:07.710Z,92.65
2018-12-21T01:19:43.669Z,93.41
2018-12-21T01:20:28.614Z,93.51
2018-12-21T01:21:46.549Z,92.84
2018-12-21T01:22:44.601Z,92.65
2018-12-21T01:23:29.355Z,92.55
2018-12-21T01:24:36.532Z,92.74
2018-12-21T01:26:26.409Z,93.60
2018-12-21T01:27:16.189Z,92.84
2018-12-21T01:28:13.427Z,92.94
2018-12-21T01:29:19.060Z,92.65
2018-12-21T01:30:34.119Z,92.94
2018-12-21T01:31:25.628Z,92.65
2018-12-21T01:32:34.651Z,92.84
2018-12-21T01:33:58.111Z,92.46
2018-12-21T01:35:40.410Z,92.27
2018-12-21T01:36:45.949Z,92.36
2018-12-21T01:37:40.429Z,92.55
2018-12-21T01:38:21.389Z,92.27
2018-12-21T01:39:19.144Z,92.08
2018-12-21T01:40:49.669Z,92.36
2018-12-21T01:42:09.849Z,91.79
2018-12-21T01:43:05.660Z,92.18
2018-12-21T01:44:33.727Z,91.79
2018-12-21T01:45:47.562Z,92.84
2018-12-21T01:46:48.902Z,92.65
2018-12-21T01:47:29.452Z,91.70
2018-12-21T01:48:42.876Z,91.89
2018-12-21T01:49:46.375Z,91.99
2018-12-21T01:51:18.639Z,92.08
2018-12-21T01:52:07.278Z,91.60
2018-12-21T01:53:28.075Z,92.08
2018-12-21T01:54:25.522Z,91.99
2018-12-21T01:55:37.513Z,92.08
2018-12-21T01:56:25.643Z,92.36
2018-12-21T01:57:49.205Z,92.18
2018-12-21T01:58:37.131Z,91.99
2018-12-21T01:59:50.461Z,91.41
2018-12-21T02:00:47.800Z,91.99
2018-12-21T02:01:46.580Z,91.70
2018-12-21T02:02:46.792Z,90.75
2018-12-21T02:04:34.009Z,90.94
2018-12-21T02:05:55.733Z,91.41
2018-12-21T02:07:17.449Z,90.94
2018-12-21T02:08:42.949Z,91.22
2018-12-21T02:09:46.340Z,91.60
2018-12-21T02:10:20.754Z,90.94
2018-12-21T02:11:30.689Z,91.13
2018-12-21T02:12:35.923Z,90.94
2018-12-21T02:14:20.064Z,91.13
2018-12-21T02:15:14.649Z,90.75
2018-12-21T02:16:17.522Z,90.94
2018-12-21T02:17:32.687Z,91.60
2018-12-21T02:18:29.726Z,91.13
2018-12-21T02:19:33.422Z,90.75
2018-12-21T02:20:30.669Z,91.31
2018-12-21T02:21:43.576Z,90.84
2018-12-21T02:23:05.304Z,91.31
2018-12-21T02:23:56.402Z,90.84
2018-12-21T02:24:50.362Z,91.51
2018-12-21T02:26:27.030Z,90.94
2018-12-21T02:27:27.247Z,90.75
2018-12-21T02:28:30.219Z,90.84
2018-12-21T02:29:06.986Z,90.27
2018-12-21T02:30:00.953Z,90.65
2018-12-21T02:31:29.221Z,90.75
2018-12-21T02:33:16.952Z,90.56
2018-12-21T02:34:07.846Z,90.36
2018-12-21T02:35:09.800Z,90.84
2018-12-21T02:36:16.879Z,90.36
2018-12-21T02:37:12.891Z,90.46
2018-12-21T02:38:18.219Z,90.75
2018-12-21T02:40:48.449Z,90.94
2018-12-21T02:41:25.210Z,90.65
2018-12-21T02:42:24.091Z,89.89
2018-12-21T02:43:36.797Z,90.56
2018-12-21T02:44:52.786Z,90.75
2018-12-21T02:46:15.627Z,90.46
2018-12-21T02:47:18.811Z,90.17
2018-12-21T02:47:51.787Z,90.75
2018-12-21T02:49:31.526Z,89.79
2018-12-21T02:50:25.391Z,90.08
2018-12-21T02:51:18.846Z,89.98
2018-12-21T02:52:14.759Z,89.98
2018-12-21T02:53:52.555Z,89.98
2018-12-21T02:55:05.772Z,89.70
2018-12-21T02:55:42.536Z,89.89
2018-12-21T02:56:47.258Z,89.61
2018-12-21T02:57:57.096Z,90.36
2018-12-21T03:00:14.316Z,89.79
2018-12-21T03:01:22.619Z,89.98
2018-12-21T03:01:49.250Z,89.98
2018-12-21T03:03:46.089Z,89.41
2018-12-21T03:04:48.146Z,89.98
2018-12-21T03:05:45.084Z,89.70
2018-12-21T03:07:30.764Z,89.13
2018-12-21T03:08:16.847Z,89.51
2018-12-21T03:09:20.027Z,89.51
2018-12-21T03:10:35.090Z,89.41
2018-12-21T03:11:10.009Z,90.36
2018-12-21T03:12:36.746Z,89.41
2018-12-21T03:13:48.119Z,89.03
2018-12-21T03:14:37.887Z,89.32
2018-12-21T03:15:49.980Z,89.22
2018-12-21T03:16:50.500Z,88.93
2018-12-21T03:18:33.625Z,89.51
2018-12-21T03:19:18.681Z,89.51
2018-12-21T03:20:11.723Z,89.41
2018-12-21T03:21:19.722Z,89.41
2018-12-21T03:22:36.625Z,89.13
2018-12-21T03:23:30.290Z,88.84
2018-12-21T03:24:40.538Z,88.93
2018-12-21T03:26:20.485Z,89.22
2018-12-21T03:26:49.160Z,89.13
2018-12-21T03:28:42.426Z,89.32
2018-12-21T03:30:02.907Z,88.93
2018-12-21T03:30:30.249Z,89.32
2018-12-21T03:31:39.574Z,88.93
2018-12-21T03:32:52.908Z,89.13
2018-12-21T03:33:50.264Z,88.46
2018-12-21T03:34:56.910Z,89.13
2018-12-21T03:36:29.793Z,89.03
2018-12-21T03:37:14.641Z,89.22
2018-12-21T03:38:34.625Z,88.75
2018-12-21T03:40:09.756Z,88.75
2018-12-21T03:41:01.378Z,88.84
2018-12-21T03:42:11.516Z,89.32
2018-12-21T03:43:00.773Z,89.03
2018-12-21T03:45:00.895Z,89.22
2018-12-21T03:45:27.822Z,89.32
2018-12-21T03:47:02.955Z,88.84
2018-12-21T03:48:14.741Z,88.46
2018-12-21T03:49:09.631Z,89.03
2018-12-21T03:51:04.742Z,88.37
2018-12-21T03:52:24.246Z,88.93
2018-12-21T03:52:42.938Z,89.13
2018-12-21T03:53:53.298Z,88.18
2018-12-21T03:55:37.640Z,88.18
2018-12-21T03:56:45.236Z,88.84
2018-12-21T03:57:47.589Z,88.84
2018-12-21T03:58:19.134Z,88.75
2018-12-21T03:59:31.425Z,88.75
2018-12-21T04:00:30.410Z,88.84
2018-12-21T04:02:14.753Z,88.84
2018-12-21T04:02:52.239Z,89.22
2018-12-21T04:04:04.430Z,89.41
2018-12-21T04:05:27.170Z,89.03
2018-12-21T04:06:09.981Z,88.93
2018-12-21T04:07:16.746Z,88.93
2018-12-21T04:09:19.122Z,89.51
2018-12-21T04:10:17.182Z,89.51
2018-12-21T04:11:01.829Z,89.61
2018-12-21T04:12:18.531Z,89.70
2018-12-21T04:13:18.030Z,89.70
2018-12-21T04:14:47.013Z,88.84
2018-12-21T04:15:20.601Z,89.41
2018-12-21T04:16:43.659Z,90.27
2018-12-21T04:17:47.039Z,89.89
2018-12-21T04:18:47.457Z,90.94
2018-12-21T04:19:50.438Z,90.65
2018-12-21T04:21:06.014Z,90.65
2018-12-21T04:22:01.818Z,89.51
2018-12-21T04:23:05.618Z,90.03
2018-12-21T04:24:17.712Z,89.70
2018-12-21T04:25:13.723Z,90.08
2018-12-21T04:26:16.806Z,90.56
2018-12-21T04:27:47.638Z,90.46
2018-12-21T04:28:45.497Z,90.75
2018-12-21T04:29:45.300Z,90.56
2018-12-21T04:30:31.484Z,90.84
2018-12-21T04:32:01.495Z,90.94
2018-12-21T04:32:42.354Z,91.13
2018-12-21T04:34:14.110Z,90.94
2018-12-21T04:35:15.346Z,91.03
2018-12-21T04:36:03.988Z,91.22
2018-12-21T04:37:09.631Z,91.03
2018-12-21T04:38:36.262Z,91.22
2018-12-21T04:39:17.326Z,91.03
2018-12-21T04:40:40.580Z,90.65
2018-12-21T04:42:17.670Z,91.60
2018-12-21T04:43:39.892Z,91.99
2018-12-21T04:44:37.853Z,91.60
2018-12-21T04:45:46.053Z,92.27
2018-12-21T04:46:21.178Z,90.94
2018-12-21T04:47:25.279Z,90.94
2018-12-21T04:48:45.973Z,90.70
2018-12-21T04:49:47.722Z,90.75
2018-12-21T04:51:12.519Z,91.60
2018-12-21T04:52:06.891Z,91.36
2018-12-21T04:53:11.305Z,90.41
2018-12-21T04:54:14.803Z,90.79
2018-12-21T04:55:01.492Z,90.50
2018-12-21T04:56:17.990Z,90.50
2018-12-21T04:57:11.951Z,90.46
2018-12-21T04:58:41.761Z,90.98
2018-12-21T04:59:48.223Z,90.89
2018-12-21T05:00:30.309Z,90.89
2018-12-21T05:01:53.359Z,90.22
2018-12-21T05:02:47.123Z,91.17
2018-12-21T05:03:52.456Z,90.60
2018-12-21T05:04:47.550Z,90.89
2018-12-21T05:06:16.129Z,90.50
2018-12-21T05:07:36.412Z,89.84
2018-12-21T05:08:26.180Z,89.84
2018-12-21T05:09:11.648Z,90.70
2018-12-21T05:10:52.618Z,90.50
2018-12-21T05:11:37.369Z,90.60
2018-12-21T05:12:41.478Z,90.50
2018-12-21T05:13:45.478Z,90.84
2018-12-21T05:14:37.503Z,91.17
2018-12-21T05:15:47.447Z,91.51
2018-12-21T05:16:52.986Z,91.74
2018-12-21T05:18:01.387Z,91.46
2018-12-21T05:19:05.805Z,91.60
2018-12-21T05:20:24.034Z,91.51
2018-12-21T05:21:41.248Z,91.79
2018-12-21T05:22:23.443Z,91.79
2018-12-21T05:23:43.106Z,91.41
2018-12-21T05:24:32.670Z,91.89
2018-12-21T05:25:32.989Z,91.51
2018-12-21T05:26:57.775Z,91.65
2018-12-21T05:27:54.199Z,91.41
2018-12-21T05:28:48.271Z,92.08
2018-12-21T05:30:00.976Z,92.18
2018-12-21T05:31:28.301Z,92.74
2018-12-21T05:32:15.024Z,92.65
2018-12-21T05:33:31.426Z,93.22
2018-12-21T05:34:22.212Z,93.70
2018-12-21T05:35:48.946Z,94.17
2018-12-21T05:36:55.102Z,94.84
2018-12-21T05:37:54.194Z,95.12
2018-12-21T05:38:48.251Z,95.12
2018-12-21T05:39:54.406Z,95.51
2018-12-21T05:40:58.610Z,95.89
2018-12-21T05:42:05.891Z,95.89
2018-12-21T05:43:47.680Z,96.65
2018-12-21T05:44:20.654Z,96.94
2018-12-21T05:45:39.316Z,96.55
2018-12-21T05:46:54.568Z,96.84
2018-12-21T05:47:22.321Z,97.79
2018-12-21T05:48:47.602Z,97.89
2018-12-21T05:49:58.588Z,97.60
2018-12-21T05:51:04.232Z,98.69
2018-12-21T05:52:18.269Z,98.65
2018-12-21T05:53:08.239Z,98.13
2018-12-21T05:54:15.316Z,98.69
2018-12-21T05:55:04.880Z,99.27
2018-12-21T05:56:44.314Z,99.22
2018-12-21T05:57:47.805Z,99.08
2018-12-21T05:58:41.159Z,98.41
2018-12-21T05:59:49.464Z,99.08
2018-12-21T06:01:07.086Z,99.41
2018-12-21T06:02:13.035Z,98.88
2018-12-21T06:03:08.014Z,99.46
2018-12-21T06:04:17.761Z,98.79
2018-12-21T06:05:37.942Z,99.36
2018-12-21T06:06:34.983Z,99.46
2018-12-21T06:07:36.225Z,99.84
2018-12-21T06:08:39.813Z,99.65
2018-12-21T06:09:46.684Z,99.99
2018-12-21T06:10:34.507Z,99.99
2018-12-21T06:11:34.823Z,99.99
2018-12-21T06:12:47.633Z,99.93
2018-12-21T06:14:01.886Z,99.99
2018-12-21T06:15:06.702Z,99.89
2018-12-21T06:16:21.655Z,99.65
2018-12-21T06:17:17.156Z,99.84
2018-12-21T06:18:36.517Z,99.99
2018-12-21T06:19:43.592Z,99.99
2018-12-21T06:20:36.534Z,99.99
2018-12-21T06:21:21.491Z,99.99
2018-12-21T06:22:39.494Z,99.99
2018-12-21T06:23:54.377Z,99.99
2018-12-21T06:25:08.523Z,99.99
2018-12-21T06:25:57.116Z,99.99
2018-12-21T06:27:07.303Z,99.99
2018-12-21T06:28:05.227Z,99.99
2018-12-21T06:29:38.246Z,99.99
2018-12-21T06:30:31.294Z,99.99
2018-12-21T06:31:31.200Z,99.99
2018-12-21T06:32:30.841Z,99.99
2018-12-21T06:33:47.814Z,99.99
2018-12-21T06:34:54.163Z,99.99
2018-12-21T06:35:47.927Z,99.99
2018-12-21T06:37:12.922Z,99.99
2018-12-21T06:38:33.103Z,99.99
2018-12-21T06:39:14.985Z,99.99
2018-12-21T06:40:18.986Z,99.99
2018-12-21T06:41:06.913Z,99.99
2018-12-21T06:42:29.858Z,99.99
2018-12-21T06:43:31.915Z,99.99
2018-12-21T06:44:29.878Z,99.99
2018-12-21T06:45:56.716Z,99.99
2018-12-21T06:47:06.762Z,99.99
2018-12-21T06:47:58.688Z,99.99
2018-12-21T06:49:41.806Z,99.99
2018-12-21T06:50:19.589Z,99.99
2018-12-21T06:51:29.634Z,99.99
2018-12-21T06:53:17.612Z,99.99
2018-12-21T06:54:07.547Z,99.99
2018-12-21T06:54:42.563Z,99.99
2018-12-21T06:56:19.541Z,99.99
2018-12-21T06:56:58.452Z,99.99
2018-12-21T06:58:05.528Z,99.99
2018-12-21T06:59:12.495Z,99.99
2018-12-21T07:00:16.809Z,99.99
2018-12-21T07:01:39.931Z,99.99
2018-12-21T07:03:00.656Z,99.99
2018-12-21T07:03:39.269Z,99.99
2018-12-21T07:05:09.814Z,99.99
2018-12-21T07:06:06.219Z,99.99
2018-12-21T07:07:10.318Z,99.99
2018-12-21T07:08:04.870Z,99.99
2018-12-21T07:09:11.155Z,99.99
2018-12-21T07:10:18.639Z,99.99
2018-12-21T07:11:05.130Z,99.99
2018-12-21T07:12:38.111Z,99.99
2018-12-21T07:13:44.983Z,99.99
2018-12-21T07:14:37.007Z,99.99
2018-12-21T07:16:04.047Z,99.99
2018-12-21T07:16:33.955Z,99.99
2018-12-21T07:18:06.525Z,99.99
2018-12-21T07:19:30.904Z,99.99
2018-12-21T07:20:14.116Z,99.99
2018-12-21T07:21:55.804Z,99.99
2018-12-21T07:22:47.825Z,99.99
2018-12-21T07:23:37.800Z,99.99
2018-12-21T07:24:50.403Z,99.99
2018-12-21T07:26:14.680Z,99.99
2018-12-21T07:27:37.728Z,99.99
2018-12-21T07:28:32.936Z,99.99
2018-12-21T07:29:43.209Z,99.99
2018-12-21T07:30:54.655Z,99.99
2018-12-21T07:31:46.165Z,99.99
2018-12-21T07:32:43.822Z,99.99
2018-12-21T07:33:46.895Z,99.99
2018-12-21T07:34:49.470Z,99.99
2018-12-21T07:36:16.516Z,99.99
2018-12-21T07:37:08.425Z,99.99
2018-12-21T07:38:07.615Z,99.99
2018-12-21T07:39:10.390Z,99.99
2018-12-21T07:40:13.142Z,99.99
2018-12-21T07:42:22.293Z,99.99
2018-12-21T07:42:48.713Z,99.99
2018-12-21T07:44:47.808Z,99.99
2018-12-21T07:45:43.513Z,99.99
2018-12-21T07:46:47.826Z,99.99
2018-12-21T07:47:40.971Z,99.99
2018-12-21T07:48:34.938Z,99.99
2018-12-21T07:49:59.113Z,99.99
2018-12-21T07:50:43.761Z,99.99
2018-12-21T07:52:18.281Z,99.99
2018-12-21T07:53:50.753Z,99.99
2018-12-21T07:54:33.763Z,99.99
2018-12-21T07:55:52.307Z,99.99
2018-12-21T07:56:40.948Z,99.99
2018-12-21T07:57:46.693Z,99.99
2018-12-21T07:59:11.893Z,99.99
2018-12-21T08:00:18.866Z,99.99
2018-12-21T08:01:23.896Z,99.99
2018-12-21T08:02:08.644Z,99.99
2018-12-21T08:03:59.853Z,99.99
2018-12-21T08:04:45.421Z,99.99
2018-12-21T08:05:54.441Z,99.99
2018-12-21T08:06:40.319Z,99.99
2018-12-21T08:08:18.524Z,99.99
2018-12-21T08:09:17.921Z,99.99
2018-12-21T08:10:12.705Z,99.99
2018-12-21T08:11:00.644Z,99.99
2018-12-21T08:12:05.558Z,99.99
2018-12-21T08:13:20.311Z,99.99
2018-12-21T08:14:46.333Z,99.99
2018-12-21T08:16:04.362Z,99.99
2018-12-21T08:17:08.158Z,99.99
2018-12-21T08:20:12.176Z,99.99
2018-12-21T08:20:58.464Z,99.99
2018-12-21T08:22:17.008Z,99.99
2018-12-21T08:23:17.633Z,99.99
2018-12-21T08:24:09.650Z,99.99
2018-12-21T08:25:31.529Z,99.99
2018-12-21T08:26:35.885Z,99.99
2018-12-21T08:27:54.323Z,99.99
2018-12-21T08:28:46.038Z,99.99
2018-12-21T08:29:26.076Z,99.99
2018-12-21T08:30:46.669Z,99.99
2018-12-21T08:31:40.553Z,99.99
2018-12-21T08:33:08.804Z,99.99
2018-12-21T08:34:47.627Z,99.99
2018-12-21T08:36:05.250Z,99.99
2018-12-21T08:36:50.205Z,99.99
2018-12-21T08:38:11.101Z,99.99
2018-12-21T08:39:14.080Z,99.99
2018-12-21T08:40:00.777Z,99.99
2018-12-21T08:41:05.803Z,99.99
2018-12-21T08:42:17.078Z,99.99
2018-12-21T08:43:10.840Z,99.99
2018-12-21T08:44:36.348Z,99.99
2018-12-21T08:45:28.674Z,99.99
2018-12-21T08:46:40.357Z,99.99
2018-12-21T08:47:41.499Z,99.99
2018-12-21T08:48:48.360Z,99.99
2018-12-21T08:49:50.518Z,99.99
2018-12-21T08:50:49.196Z,99.99
2018-12-21T08:51:49.822Z,99.99
2018-12-21T08:52:54.336Z,99.99
2018-12-21T08:54:08.167Z,99.99
2018-12-21T08:55:28.246Z,99.99
2018-12-21T08:56:19.655Z,99.99
2018-12-21T08:57:28.775Z,99.99
2018-12-21T08:58:40.253Z,99.99
2018-12-21T08:59:29.922Z,99.99
2018-12-21T09:00:43.042Z,99.99
2018-12-21T09:02:01.483Z,99.99
2018-12-21T09:02:56.572Z,99.99
2018-12-21T09:04:16.346Z,99.99
2018-12-21T09:04:56.077Z,99.99
2018-12-21T09:06:18.264Z,99.99
2018-12-21T09:07:11.456Z,99.99
2018-12-21T09:08:15.359Z,99.99
2018-12-21T09:09:28.699Z,99.99
2018-12-21T09:10:18.962Z,99.99
2018-12-21T09:11:52.766Z,99.99
2018-12-21T09:12:34.752Z,99.99
2018-12-21T09:13:44.183Z,99.99
2018-12-21T09:14:49.009Z,99.99
2018-12-21T09:15:58.845Z,99.99
2018-12-21T09:16:58.856Z,99.99
2018-12-21T09:18:01.233Z,99.99
2018-12-21T09:19:21.611Z,99.99
2018-12-21T09:20:20.692Z,99.99
2018-12-21T09:21:21.015Z,99.99
2018-12-21T09:22:33.540Z,99.99
2018-12-21T09:23:30.861Z,99.99
2018-12-21T09:24:33.938Z,99.99
2018-12-21T09:25:47.885Z,99.99
2018-12-21T09:27:04.167Z,99.99
2018-12-21T09:27:59.067Z,99.99
2018-12-21T09:29:04.804Z,99.99
2018-12-21T09:30:00.913Z,99.99
2018-12-21T09:31:17.305Z,99.99
2018-12-21T09:32:22.545Z,99.99
2018-12-21T09:33:28.380Z,99.99
2018-12-21T09:34:38.426Z,99.99
2018-12-21T09:35:39.460Z,99.99
2018-12-21T09:36:49.501Z,99.99
2018-12-21T09:37:55.559Z,99.99
2018-12-21T09:38:56.175Z,99.99
2018-12-21T09:39:54.244Z,99.99
2018-12-21T09:40:45.231Z,99.99
2018-12-21T09:41:58.663Z,99.99
2018-12-21T09:43:19.452Z,99.99
2018-12-21T09:44:17.309Z,99.99
2018-12-21T09:45:28.686Z,99.99
2018-12-21T09:46:18.862Z,99.99
2018-12-21T09:48:01.682Z,99.99
2018-12-21T09:48:52.266Z,99.99
2018-12-21T09:49:43.466Z,99.99
2018-12-21T09:51:00.270Z,99.99
2018-12-21T09:51:57.722Z,99.99
2018-12-21T09:53:10.118Z,99.99
2018-12-21T09:54:09.535Z,99.99
2018-12-21T09:55:16.490Z,99.99
2018-12-21T09:56:20.282Z,99.99
2018-12-21T09:57:25.820Z,99.99
2018-12-21T09:58:29.634Z,99.99
2018-12-21T09:59:33.722Z,99.99
2018-12-21T10:00:40.081Z,99.99
2018-12-21T10:01:44.285Z,99.99
2018-12-21T10:02:56.284Z,99.99
2018-12-21T10:04:06.322Z,99.99
2018-12-21T10:04:58.142Z,99.99
2018-12-21T10:06:06.188Z,99.99
2018-12-21T10:07:10.647Z,99.99
2018-12-21T10:08:19.363Z,99.99
2018-12-21T10:09:24.194Z,99.99
2018-12-21T10:10:24.909Z,99.99
2018-12-21T10:11:28.607Z,99.99
2018-12-21T10:12:53.812Z,99.99
2018-12-21T10:13:58.734Z,99.99
2018-12-21T10:15:01.195Z,99.99
2018-12-21T10:15:57.635Z,99.99
2018-12-21T10:17:07.971Z,99.99
2018-12-21T10:17:57.032Z,99.99
2018-12-21T10:19:24.707Z,99.99
2018-12-21T10:20:26.639Z,99.99
2018-12-21T10:21:27.467Z,99.99
2018-12-21T10:22:37.105Z,99.99
2018-12-21T10:23:20.727Z,99.99
2018-12-21T10:24:49.606Z,99.99
2018-12-21T10:25:46.249Z,99.99
2018-12-21T10:27:01.500Z,99.99
2018-12-21T10:27:50.652Z,99.99
2018-12-21T10:29:01.516Z,99.99
2018-12-21T10:30:08.896Z,99.99
2018-12-21T10:31:12.389Z,99.99
2018-12-21T10:32:09.632Z,99.99
2018-12-21T10:33:13.430Z,99.99
2018-12-21T10:34:26.445Z,99.99
2018-12-21T10:35:35.772Z,99.99
2018-12-21T10:36:41.514Z,99.99
2018-12-21T10:37:38.452Z,99.99
2018-12-21T10:38:51.059Z,99.99
2018-12-21T10:40:02.025Z,99.99
2018-12-21T10:41:03.565Z,99.99
2018-12-21T10:42:09.726Z,99.99
2018-12-21T10:43:16.277Z,99.99
2018-12-21T10:44:18.030Z,99.99
2018-12-21T10:45:41.262Z,99.99
2018-12-21T10:46:37.403Z,99.99
2018-12-21T10:47:34.237Z,99.99
2018-12-21T10:48:38.342Z,99.99
2018-12-21T10:49:43.707Z,99.99
2018-12-21T10:50:48.704Z,99.99
2018-12-21T10:52:07.348Z,99.99
2018-12-21T10:53:08.994Z,99.99
2018-12-21T10:54:10.444Z,99.99
2018-12-21T10:55:06.972Z,99.99
2018-12-21T10:56:27.462Z,99.99
2018-12-21T10:57:26.336Z,99.99
2018-12-21T10:58:22.352Z,99.99
2018-12-21T10:59:43.175Z,99.99
2018-12-21T11:00:47.152Z,99.99
2018-12-21T11:01:53.920Z,99.99
2018-12-21T11:02:50.038Z,99.99
2018-12-21T11:03:54.247Z,99.99
2018-12-21T11:05:03.886Z,99.99
2018-12-21T11:06:03.302Z,99.99
2018-12-21T11:07:21.949Z,99.99
2018-12-21T11:08:23.572Z,99.99
2018-12-21T11:09:28.905Z,99.99
2018-12-21T11:10:27.615Z,99.99
2018-12-21T11:11:32.714Z,99.99
2018-12-21T11:12:43.582Z,99.99
2018-12-21T11:13:49.940Z,99.99
2018-12-21T11:15:02.137Z,99.99
2018-12-21T11:15:52.102Z,99.99
2018-12-21T11:17:15.254Z,99.99
2018-12-21T11:18:09.736Z,99.99
2018-12-21T11:19:18.334Z,99.99
2018-12-21T11:20:10.980Z,99.99
2018-12-21T11:21:22.975Z,99.99
2018-12-21T11:22:32.916Z,99.99
2018-12-21T11:23:26.059Z,99.99
2018-12-21T11:24:37.026Z,99.99
2018-12-21T11:25:51.777Z,99.99
2018-12-21T11:26:56.715Z,99.99
2018-12-21T11:27:48.396Z,99.99
2018-12-21T11:29:01.643Z,99.99
2018-12-21T11:30:09.849Z,99.99
2018-12-21T11:31:11.384Z,99.99
2018-12-21T11:32:16.820Z,99.99
2018-12-21T11:33:25.431Z,99.99
2018-12-21T11:34:35.989Z,99.99
2018-12-21T11:35:38.661Z,99.99
2018-12-21T11:36:39.696Z,99.99
2018-12-21T11:37:52.813Z,99.99
2018-12-21T11:38:48.824Z,99.99
2018-12-21T11:39:58.969Z,99.99
2018-12-21T11:41:05.337Z,99.99
2018-12-21T11:42:14.557Z,99.99
2018-12-21T11:43:16.817Z,99.99
2018-12-21T11:44:23.277Z,99.99
2018-12-21T11:45:34.344Z,99.99
2018-12-21T11:46:37.220Z,99.99
2018-12-21T11:47:36.409Z,99.99
2018-12-21T11:48:37.439Z,99.99
2018-12-21T11:49:44.723Z,99.99
2018-12-21T11:50:56.823Z,99.99
2018-12-21T11:52:06.454Z,99.99
2018-12-21T11:53:05.235Z,99.99
2018-12-21T11:54:04.521Z,99.99
2018-12-21T11:55:09.140Z,99.99
2018-12-21T11:56:28.192Z,99.99
2018-12-21T11:57:18.910Z,99.99
2018-12-21T11:58:39.228Z,99.99
2018-12-21T11:59:34.057Z,99.99
2018-12-21T12:00:40.923Z,99.99
2018-12-21T12:01:51.377Z,99.99
2018-12-21T12:02:57.734Z,99.99
2018-12-21T12:04:01.023Z,99.99
2018-12-21T12:05:11.177Z,99.99
2018-12-21T12:06:05.035Z,99.99
2018-12-21T12:07:25.935Z,99.99
2018-12-21T12:08:16.421Z,99.99
2018-12-21T12:09:34.142Z,99.99
2018-12-21T12:10:37.326Z,99.99
2018-12-21T12:11:39.383Z,99.99
2018-12-21T12:12:43.689Z,99.99
2018-12-21T12:14:09.298Z,99.99
2018-12-21T12:14:54.051Z,99.99
2018-12-21T12:16:08.708Z,99.99
2018-12-21T12:17:03.291Z,99.99
2018-12-21T12:18:30.449Z,99.99
2018-12-21T12:19:36.584Z,99.99
2018-12-21T12:20:33.312Z,99.99
2018-12-21T12:21:39.056Z,99.99
2018-12-21T12:22:59.235Z,99.99
2018-12-21T12:23:57.300Z,99.99
2018-12-21T12:25:28.338Z,99.99
2018-12-21T12:26:07.150Z,99.99
2018-12-21T12:27:12.588Z,99.99
2018-12-21T12:28:03.995Z,99.99
2018-12-21T12:29:25.624Z,99.99
2018-12-21T12:30:21.221Z,99.99
2018-12-21T12:31:31.263Z,99.99
2018-12-21T12:32:34.445Z,99.99
2018-12-21T12:33:39.782Z,99.99
2018-12-21T12:34:46.451Z,99.99
2018-12-21T12:35:46.349Z,99.99
2018-12-21T12:36:58.955Z,99.99
2018-12-21T12:38:07.154Z,99.99
2018-12-21T12:39:01.630Z,99.99
2018-12-21T12:40:06.349Z,99.99
2018-12-21T12:41:17.419Z,99.99
2018-12-21T12:42:22.143Z,99.99
2018-12-21T12:43:32.395Z,99.99
2018-12-21T12:44:38.029Z,99.99
2018-12-21T12:45:43.162Z,99.99
2018-12-21T12:46:38.250Z,99.99
2018-12-21T12:47:45.839Z,99.99
2018-12-21T12:48:46.459Z,99.99
2018-12-21T12:49:50.154Z,99.99
2018-12-21T12:51:04.406Z,99.99
2018-12-21T12:52:03.997Z,99.99
2018-12-21T12:53:05.440Z,99.99
2018-12-21T12:54:17.328Z,99.99
2018-12-21T12:55:23.073Z,99.99
2018-12-21T12:56:34.147Z,99.99
2018-12-21T12:57:27.496Z,99.99
2018-12-21T12:58:42.456Z,99.99
2018-12-21T12:59:43.489Z,99.99
2018-12-21T13:00:55.603Z,99.99
2018-12-21T13:02:03.278Z,99.99
2018-12-21T13:03:07.176Z,99.99
2018-12-21T13:04:09.955Z,99.99
2018-12-21T13:05:10.570Z,99.99
2018-12-21T13:06:15.191Z,99.99
2018-12-21T13:07:28.303Z,99.99
2018-12-21T13:08:35.176Z,99.99
2018-12-21T13:09:37.436Z,99.99
2018-12-21T13:10:49.227Z,99.99
2018-12-21T13:11:43.801Z,99.99
2018-12-21T13:12:45.974Z,99.99
2018-12-21T13:14:00.411Z,99.99
2018-12-21T13:15:07.997Z,99.99
2018-12-21T13:16:13.536Z,99.99
2018-12-21T13:17:21.529Z,99.99
2018-12-21T13:18:25.944Z,99.99
2018-12-21T13:19:29.235Z,99.99
2018-12-21T13:20:46.339Z,99.99
2018-12-21T13:21:37.549Z,99.99
2018-12-21T13:22:38.474Z,99.99
2018-12-21T13:23:48.312Z,99.99
2018-12-21T13:24:51.599Z,99.99
2018-12-21T13:25:58.775Z,99.99
2018-12-21T13:27:02.479Z,99.99
2018-12-21T13:28:14.360Z,99.99
2018-12-21T13:29:18.155Z,99.99
2018-12-21T13:30:20.624Z,99.99
2018-12-21T13:31:22.718Z,99.99
2018-12-21T13:32:25.041Z,99.99
2018-12-21T13:33:45.532Z,99.99
2018-12-21T13:34:48.610Z,99.99
2018-12-21T13:35:46.061Z,99.99
2018-12-21T13:36:50.981Z,99.99
2018-12-21T13:37:55.905Z,99.99
2018-12-21T13:39:27.053Z,99.99
2018-12-21T13:40:15.485Z,99.99
2018-12-21T13:41:27.576Z,99.99
2018-12-21T13:42:31.170Z,99.99
2018-12-21T13:43:34.465Z,99.99
2018-12-21T13:44:40.105Z,99.99
2018-12-21T13:45:43.483Z,99.99
2018-12-21T13:46:43.902Z,99.99
2018-12-21T13:47:52.523Z,99.99
2018-12-21T13:49:01.022Z,99.99
2018-12-21T13:50:17.827Z,99.99
2018-12-21T13:51:06.264Z,99.99
2018-12-21T13:52:11.913Z,99.99
2018-12-21T13:53:32.406Z,99.99
2018-12-21T13:54:34.345Z,99.99
2018-12-21T13:55:30.463Z,99.99
2018-12-21T13:56:31.600Z,99.99
2018-12-21T13:57:41.234Z,99.99
2018-12-21T13:58:47.298Z,99.99
2018-12-21T13:59:42.991Z,99.99
2018-12-21T14:00:53.958Z,99.99
2018-12-21T14:02:10.251Z,99.99
2018-12-21T14:03:06.570Z,99.99
2018-12-21T14:04:13.339Z,99.99
2018-12-21T14:05:16.013Z,99.99
2018-12-21T14:06:23.597Z,99.99
2018-12-21T14:07:17.564Z,99.99
2018-12-21T14:08:31.602Z,99.99
2018-12-21T14:09:39.667Z,99.99
2018-12-21T14:10:47.292Z,99.99
2018-12-21T14:11:53.032Z,99.99
2018-12-21T14:12:44.238Z,99.99
2018-12-21T14:14:03.600Z,99.99
2018-12-21T14:15:02.484Z,99.99
2018-12-21T14:16:14.062Z,99.99
2018-12-21T14:17:23.489Z,99.99
2018-12-21T14:18:22.170Z,99.99
2018-12-21T14:19:27.091Z,99.99